createdAt,value
2023-04-16T00:00:54.977Z,97316.13
2023-04-16T00:03:40.581Z,97320.69
2023-04-16T00:06:26.325Z,97325.88
2023-04-16T00:09:11.732Z,97324.47
2023-04-16T00:11:56.967Z,97317.97
2023-04-16T00:14:42.330Z,97314.72
2023-04-16T00:17:27.673Z,97308.00
2023-04-16T00:20:13.059Z,97313.63
2023-04-16T00:22:58.613Z,97320.19
2023-04-16T00:25:43.885Z,97323.94
2023-04-16T00:28:29.298Z,97320.47
2023-04-16T00:31:14.979Z,97326.66
2023-04-16T00:33:59.993Z,97322.88
2023-04-16T00:36:45.262Z,97323.97
2023-04-16T00:39:30.854Z,97321.53
2023-04-16T00:42:16.181Z,97317.97
2023-04-16T00:45:01.596Z,97319.06
2023-04-16T00:47:46.842Z,97314.19
2023-04-16T00:50:32.321Z,97316.59
2023-04-16T00:53:17.710Z,97321.84
2023-04-16T00:56:03.161Z,97321.75
2023-04-16T00:58:48.692Z,97328.06
2023-04-16T01:01:34.108Z,97326.63
2023-04-16T01:04:19.452Z,97322.59
2023-04-16T01:07:04.669Z,97310.34
2023-04-16T01:09:50.039Z,97318.97
2023-04-16T01:12:35.613Z,97322.50
2023-04-16T01:15:20.963Z,97315.72
2023-04-16T01:18:06.537Z,97321.72
2023-04-16T01:20:51.937Z,97321.50
2023-04-16T01:23:37.380Z,97319.78
2023-04-16T01:26:22.886Z,97317.16
2023-04-16T01:29:08.422Z,97328.56
2023-04-16T01:31:53.953Z,97330.75
2023-04-16T01:34:39.105Z,97327.47
2023-04-16T01:37:24.566Z,97333.16
2023-04-16T01:40:09.961Z,97335.03
2023-04-16T01:42:55.179Z,97329.53
2023-04-16T01:45:40.060Z,97331.28
2023-04-16T01:48:25.384Z,97325.63
2023-04-16T01:51:11.038Z,97332.84
2023-04-16T01:53:56.473Z,97335.88
2023-04-16T01:56:41.884Z,97330.94
2023-04-16T01:59:26.982Z,97340.72
2023-04-16T02:02:12.403Z,97344.06
2023-04-16T02:04:57.869Z,97343.72
2023-04-16T02:07:43.257Z,97346.75
2023-04-16T02:10:28.684Z,97350.22
2023-04-16T02:13:14.048Z,97355.41
2023-04-16T02:15:59.545Z,97344.53
2023-04-16T02:18:44.937Z,97340.25
2023-04-16T02:21:30.201Z,97342.09
2023-04-16T02:24:15.591Z,97348.34
2023-04-16T02:27:00.834Z,97346.72
2023-04-16T02:29:46.269Z,97353.47
2023-04-16T02:32:31.800Z,97355.63
2023-04-16T02:35:17.066Z,97358.38
2023-04-16T02:38:02.564Z,97354.56
2023-04-16T02:40:47.895Z,97351.09
2023-04-16T02:43:33.401Z,97350.19
2023-04-16T02:46:18.992Z,97339.38
2023-04-16T02:49:04.216Z,97340.69
2023-04-16T02:51:49.677Z,97339.06
2023-04-16T02:54:34.975Z,97335.25
2023-04-16T02:57:20.460Z,97338.00
2023-04-16T03:00:05.397Z,97335.78
2023-04-16T03:02:50.982Z,97343.22
2023-04-16T03:05:38.064Z,97342.91
2023-04-16T03:08:27.945Z,97344.78
2023-04-16T03:11:13.258Z,97340.69
2023-04-16T03:13:58.730Z,97345.28
2023-04-16T03:16:44.135Z,97340.97
2023-04-16T03:19:29.626Z,97338.78
2023-04-16T03:22:15.108Z,97339.31
2023-04-16T03:25:00.248Z,97330.94
2023-04-16T03:27:45.632Z,97332.28
2023-04-16T03:30:30.897Z,97330.88
2023-04-16T03:33:16.041Z,97336.34
2023-04-16T03:36:01.460Z,97334.97
2023-04-16T03:38:46.520Z,97337.69
2023-04-16T03:41:32.041Z,97332.00
2023-04-16T03:44:17.368Z,97333.91
2023-04-16T03:47:02.714Z,97336.59
2023-04-16T03:49:48.174Z,97341.25
2023-04-16T03:52:33.526Z,97337.13
2023-04-16T03:55:18.988Z,97337.16
2023-04-16T03:58:04.333Z,97333.56
2023-04-16T04:00:49.840Z,97334.13
2023-04-16T04:03:35.428Z,97336.69
2023-04-16T04:06:20.655Z,97332.31
2023-04-16T04:09:05.694Z,97335.53
2023-04-16T04:11:51.002Z,97337.50
2023-04-16T04:14:36.229Z,97340.47
2023-04-16T04:17:21.231Z,97333.91
2023-04-16T04:20:06.720Z,97336.41
2023-04-16T04:22:52.015Z,97344.53
2023-04-16T04:25:37.425Z,97341.50
2023-04-16T04:28:22.761Z,97338.00
2023-04-16T04:31:07.796Z,97352.50
2023-04-16T04:33:56.235Z,97356.81
2023-04-16T04:36:41.426Z,97349.78
2023-04-16T04:39:26.871Z,97344.09
2023-04-16T04:42:12.259Z,97339.84
2023-04-16T04:44:57.521Z,97344.88
2023-04-16T04:47:42.421Z,97348.09
2023-04-16T04:50:27.798Z,97347.84
2023-04-16T04:53:13.117Z,97354.88
2023-04-16T04:56:05.499Z,97354.31
2023-04-16T04:58:57.411Z,97361.19
2023-04-16T05:01:42.777Z,97365.25
2023-04-16T05:04:28.130Z,97364.97
2023-04-16T05:07:13.815Z,97358.50
2023-04-16T05:09:59.046Z,97358.47
2023-04-16T05:12:44.813Z,97363.81
2023-04-16T05:15:29.930Z,97358.06
2023-04-16T05:18:15.369Z,97362.22
2023-04-16T05:21:00.797Z,97364.63
2023-04-16T05:23:46.123Z,97363.00
2023-04-16T05:26:31.468Z,97371.47
2023-04-16T05:29:16.855Z,97365.94
2023-04-16T05:32:02.377Z,97369.81
2023-04-16T05:34:47.440Z,97371.00
2023-04-16T05:37:32.785Z,97363.56
2023-04-16T05:40:18.309Z,97372.13
2023-04-16T05:43:03.590Z,97367.09
2023-04-16T05:45:48.995Z,97362.31
2023-04-16T05:48:34.326Z,97369.06
2023-04-16T05:51:19.726Z,97366.59
2023-04-16T05:54:04.879Z,97358.50
2023-04-16T05:56:50.357Z,97359.59
2023-04-16T05:59:35.241Z,97362.25
2023-04-16T06:02:20.685Z,97370.47
2023-04-16T06:05:05.951Z,97373.69
2023-04-16T06:07:51.033Z,97371.22
2023-04-16T06:10:36.401Z,97375.31
2023-04-16T06:13:21.777Z,97374.28
2023-04-16T06:16:07.098Z,97381.41
2023-04-16T06:18:52.614Z,97377.78
2023-04-16T06:21:37.994Z,97384.75
2023-04-16T06:24:23.503Z,97379.69
2023-04-16T06:27:08.856Z,97382.44
2023-04-16T06:29:54.195Z,97389.16
2023-04-16T06:32:41.538Z,97384.25
2023-04-16T06:35:26.382Z,97375.81
2023-04-16T06:38:11.742Z,97373.44
2023-04-16T06:40:57.241Z,97385.16
2023-04-16T06:43:42.519Z,97380.75
2023-04-16T06:46:28.017Z,97375.81
2023-04-16T06:49:13.263Z,97383.75
2023-04-16T06:51:58.582Z,97385.63
2023-04-16T06:54:43.905Z,97374.53
2023-04-16T06:57:29.261Z,97379.66
2023-04-16T07:00:14.667Z,97384.22
2023-04-16T07:02:59.994Z,97377.72
2023-04-16T07:05:45.201Z,97387.56
2023-04-16T07:08:30.481Z,97383.25
2023-04-16T07:11:15.680Z,97385.94
2023-04-16T07:14:00.882Z,97384.31
2023-04-16T07:16:46.202Z,97387.03
2023-04-16T07:19:31.226Z,97393.00
2023-04-16T07:22:16.688Z,97396.19
2023-04-16T07:25:02.013Z,97398.22
2023-04-16T07:27:47.264Z,97394.09
2023-04-16T07:30:32.699Z,97400.63
2023-04-16T07:33:18.173Z,97400.84
2023-04-16T07:36:03.441Z,97398.44
2023-04-16T07:38:48.777Z,97398.66
2023-04-16T07:41:33.995Z,97401.97
2023-04-16T07:44:19.439Z,97405.72
2023-04-16T07:47:05.663Z,97406.38
2023-04-16T07:49:50.840Z,97411.50
2023-04-16T07:52:36.215Z,97414.41
2023-04-16T07:55:21.536Z,97406.47
2023-04-16T07:58:06.890Z,97410.94
2023-04-16T08:00:52.178Z,97412.53
2023-04-16T08:03:37.915Z,97418.63
2023-04-16T08:06:23.543Z,97414.19
2023-04-16T08:09:09.184Z,97420.19
2023-04-16T08:11:54.717Z,97413.38
2023-04-16T08:14:39.748Z,97420.44
2023-04-16T08:17:25.209Z,97419.53
2023-04-16T08:20:12.200Z,97424.63
2023-04-16T08:22:59.668Z,97421.34
2023-04-16T08:25:45.004Z,97428.88
2023-04-16T08:28:30.264Z,97420.78
2023-04-16T08:31:15.261Z,97425.88
2023-04-16T08:34:00.728Z,97430.34
2023-04-16T08:36:45.922Z,97427.31
2023-04-16T08:39:31.335Z,97438.38
2023-04-16T08:42:16.366Z,97437.28
2023-04-16T08:45:01.580Z,97434.34
2023-04-16T08:47:46.980Z,97434.66
2023-04-16T08:50:32.281Z,97436.59
2023-04-16T08:53:17.259Z,97441.63
2023-04-16T08:56:02.554Z,97445.13
2023-04-16T08:58:47.870Z,97449.31
2023-04-16T09:01:33.213Z,97457.34
2023-04-16T09:04:18.508Z,97458.19
2023-04-16T09:07:03.827Z,97459.81
2023-04-16T09:09:49.178Z,97459.91
2023-04-16T09:12:34.431Z,97460.72
2023-04-16T09:15:19.768Z,97464.53
2023-04-16T09:18:05.136Z,97468.66
2023-04-16T09:20:53.252Z,97464.09
2023-04-16T09:23:38.600Z,97465.97
2023-04-16T09:26:24.052Z,97469.13
2023-04-16T09:29:09.779Z,97462.09
2023-04-16T09:31:55.156Z,97464.53
2023-04-16T09:34:40.512Z,97469.25
2023-04-16T09:37:25.691Z,97469.44
2023-04-16T09:40:11.047Z,97462.91
2023-04-16T09:42:56.222Z,97469.72
2023-04-16T09:45:41.571Z,97470.78
2023-04-16T09:48:27.153Z,97470.25
2023-04-16T09:51:15.581Z,97476.47
2023-04-16T09:54:01.880Z,97475.19
2023-04-16T09:56:47.520Z,97468.41
2023-04-16T09:59:32.711Z,97478.16
2023-04-16T10:02:18.214Z,97471.59
2023-04-16T10:05:03.436Z,97481.34
2023-04-16T10:07:48.849Z,97474.34
2023-04-16T10:10:34.305Z,97482.47
2023-04-16T10:13:19.703Z,97484.16
2023-04-16T10:16:05.129Z,97480.03
2023-04-16T10:18:50.251Z,97446.19
2023-04-16T10:21:35.584Z,97464.91
2023-04-16T10:24:20.612Z,97458.63
2023-04-16T10:27:05.799Z,97465.53
2023-04-16T10:29:51.295Z,97463.53
2023-04-16T10:32:36.552Z,97462.81
2023-04-16T10:35:21.904Z,97459.16
2023-04-16T10:38:07.220Z,97461.38
2023-04-16T10:40:52.299Z,97467.56
2023-04-16T10:43:37.706Z,97494.16
2023-04-16T10:46:23.161Z,97487.69
2023-04-16T10:49:08.620Z,97489.13
2023-04-16T10:51:53.787Z,97487.47
2023-04-16T10:54:38.955Z,97492.13
2023-04-16T10:57:24.034Z,97484.50
2023-04-16T11:00:09.305Z,97492.91
2023-04-16T11:02:54.996Z,97488.38
2023-04-16T11:05:40.129Z,97484.41
2023-04-16T11:08:26.399Z,97490.47
2023-04-16T11:11:11.351Z,97485.47
2023-04-16T11:13:56.858Z,97487.69
2023-04-16T11:16:42.244Z,97482.38
2023-04-16T11:19:27.399Z,97493.31
2023-04-16T11:22:12.987Z,97490.41
2023-04-16T11:24:58.318Z,97483.03
2023-04-16T11:27:43.766Z,97491.31
2023-04-16T11:30:29.034Z,97488.22
2023-04-16T11:33:14.581Z,97489.22
2023-04-16T11:35:59.958Z,97484.69
2023-04-16T11:38:45.089Z,97482.50
2023-04-16T11:41:30.363Z,97488.16
2023-04-16T11:44:15.725Z,97484.16
2023-04-16T11:47:01.408Z,97477.59
2023-04-16T11:49:46.764Z,97474.34
2023-04-16T11:52:32.152Z,97485.47
2023-04-16T11:55:17.625Z,97485.91
2023-04-16T11:58:02.921Z,97478.97
2023-04-16T12:00:48.328Z,97477.88
2023-04-16T12:03:34.050Z,97482.13
2023-04-16T12:06:19.636Z,97479.66
2023-04-16T12:09:04.989Z,97481.56
2023-04-16T12:11:50.290Z,97484.47
2023-04-16T12:14:35.851Z,97478.41
2023-04-16T12:17:21.148Z,97478.09
2023-04-16T12:20:06.625Z,97479.78
2023-04-16T12:22:51.978Z,97475.50
2023-04-16T12:25:37.317Z,97487.56
2023-04-16T12:28:22.584Z,97477.06
2023-04-16T12:31:08.170Z,97486.28
2023-04-16T12:33:53.459Z,97483.75
2023-04-16T12:36:38.706Z,97485.16
2023-04-16T12:39:23.884Z,97479.09
2023-04-16T12:42:09.301Z,97483.44
2023-04-16T12:44:54.704Z,97474.34
2023-04-16T12:47:40.033Z,97478.97
2023-04-16T12:50:25.308Z,97474.88
2023-04-16T12:53:10.783Z,97484.56
2023-04-16T12:55:56.124Z,97476.09
2023-04-16T12:58:41.478Z,97477.72
2023-04-16T13:01:26.967Z,97476.13
2023-04-16T13:04:12.428Z,97474.47
2023-04-16T13:06:57.648Z,97476.94
2023-04-16T13:09:43.029Z,97470.53
2023-04-16T13:12:28.291Z,97472.03
2023-04-16T13:15:13.819Z,97459.06
2023-04-16T13:17:59.105Z,97463.19
2023-04-16T13:20:44.574Z,97463.66
2023-04-16T13:23:29.790Z,97469.34
2023-04-16T13:26:15.125Z,97462.00
2023-04-16T13:29:00.644Z,97460.47
2023-04-16T13:31:46.167Z,97458.50
2023-04-16T13:34:31.377Z,97464.72
2023-04-16T13:37:16.738Z,97467.31
2023-04-16T13:40:02.594Z,97456.16
2023-04-16T13:42:47.862Z,97461.03
2023-04-16T13:45:33.427Z,97456.44
2023-04-16T13:48:18.988Z,97459.16
2023-04-16T13:51:04.338Z,97456.25
2023-04-16T13:53:50.228Z,97451.25
2023-04-16T13:56:35.999Z,97446.38
2023-04-16T13:59:21.361Z,97450.81
2023-04-16T14:02:06.981Z,97449.72
2023-04-16T14:04:52.153Z,97448.59
2023-04-16T14:07:39.837Z,97442.59
2023-04-16T14:10:26.098Z,97450.22
2023-04-16T14:13:12.487Z,97446.69
2023-04-16T14:15:59.684Z,97448.31
2023-04-16T14:18:45.243Z,97450.81
2023-04-16T14:21:32.752Z,97447.81
2023-04-16T14:24:17.947Z,97445.91
2023-04-16T14:27:03.493Z,97449.41
2023-04-16T14:29:48.856Z,97446.19
2023-04-16T14:32:34.394Z,97454.84
2023-04-16T14:35:20.112Z,97450.22
2023-04-16T14:38:07.488Z,97452.41
2023-04-16T14:40:52.929Z,97454.28
2023-04-16T14:43:40.452Z,97456.25
2023-04-16T14:46:26.704Z,97452.97
2023-04-16T14:49:12.533Z,97449.72
2023-04-16T14:51:57.977Z,97458.03
2023-04-16T14:54:43.583Z,97444.75
2023-04-16T14:57:30.669Z,97449.13
2023-04-16T15:00:19.505Z,97446.94
2023-04-16T15:03:05.313Z,97453.91
2023-04-16T15:05:51.012Z,97450.50
2023-04-16T15:08:36.307Z,97448.31
2023-04-16T15:11:21.518Z,97442.66
2023-04-16T15:14:06.861Z,97445.13
2023-04-16T15:16:52.187Z,97438.28
2023-04-16T15:19:37.494Z,97439.06
2023-04-16T15:22:23.126Z,97445.63
2023-04-16T15:25:08.899Z,97442.63
2023-04-16T15:27:54.198Z,97449.97
2023-04-16T15:30:39.872Z,97448.56
2023-04-16T15:33:25.012Z,97447.00
2023-04-16T15:36:10.571Z,97446.69
2023-04-16T15:38:55.733Z,97447.22
2023-04-16T15:41:59.944Z,97453.22
2023-04-16T15:44:46.982Z,97452.09
2023-04-16T15:47:32.375Z,97442.84
2023-04-16T15:50:17.430Z,97450.50
2023-04-16T15:53:03.043Z,97455.91
2023-04-16T15:55:48.743Z,97454.88
2023-04-16T15:58:34.927Z,97456.69
2023-04-16T16:01:20.511Z,97453.75
2023-04-16T16:04:05.722Z,97460.59
2023-04-16T16:06:50.866Z,97461.91
2023-04-16T16:09:36.466Z,97468.41
2023-04-16T16:12:24.594Z,97471.06
2023-04-16T16:15:09.731Z,97466.75
2023-04-16T16:17:55.172Z,97471.69
2023-04-16T16:20:40.734Z,97468.13
2023-04-16T16:23:26.266Z,97473.31
2023-04-16T16:26:11.284Z,97473.53
2023-04-16T16:28:56.768Z,97475.19
2023-04-16T16:31:42.207Z,97467.03
2023-04-16T16:34:27.679Z,97482.78
2023-04-16T16:37:12.954Z,97487.63
2023-04-16T16:39:58.470Z,97490.44
2023-04-16T16:42:43.858Z,97498.13
2023-04-16T16:45:29.158Z,97495.00
2023-04-16T16:48:14.524Z,97493.78
2023-04-16T16:50:59.854Z,97500.31
2023-04-16T16:53:45.153Z,97501.28
2023-04-16T16:56:30.427Z,97505.50
2023-04-16T16:59:15.913Z,97504.94
2023-04-16T17:02:01.477Z,97503.13
2023-04-16T17:04:46.384Z,97502.31
2023-04-16T17:07:31.824Z,97505.59
2023-04-16T17:10:17.114Z,97506.44
2023-04-16T17:13:02.538Z,97503.66
2023-04-16T17:15:48.009Z,97508.81
2023-04-16T17:18:33.307Z,97506.25
2023-04-16T17:21:18.623Z,97509.63
2023-04-16T17:24:03.805Z,97504.50
2023-04-16T17:26:49.101Z,97510.28
2023-04-16T17:29:36.212Z,97509.00
2023-04-16T17:32:21.878Z,97514.63
2023-04-16T17:35:07.706Z,97510.25
2023-04-16T17:37:53.528Z,97522.47
2023-04-16T17:40:38.765Z,97513.41
2023-04-16T17:43:24.222Z,97516.34
2023-04-16T17:46:09.214Z,97515.56
2023-04-16T17:48:54.550Z,97522.69
2023-04-16T17:51:39.830Z,97518.09
2023-04-16T17:54:25.295Z,97517.81
2023-04-16T17:57:10.675Z,97518.91
2023-04-16T17:59:56.022Z,97518.88
2023-04-16T18:02:41.451Z,97518.66
2023-04-16T18:05:26.678Z,97521.94
2023-04-16T18:08:11.975Z,97524.38
2023-04-16T18:10:57.350Z,97524.97
2023-04-16T18:13:42.912Z,97518.16
2023-04-16T18:16:28.367Z,97519.03
2023-04-16T18:19:13.725Z,97521.41
2023-04-16T18:21:59.275Z,97517.00
2023-04-16T18:24:44.582Z,97523.56
2023-04-16T18:27:30.039Z,97524.09
2023-04-16T18:30:22.098Z,97518.34
2023-04-16T18:33:43.543Z,97527.41
2023-04-16T18:36:15.510Z,97514.06
2023-04-16T18:39:02.114Z,97527.16
2023-04-16T18:41:49.088Z,97522.47
2023-04-16T18:44:34.418Z,97522.47
2023-04-16T18:47:19.809Z,97526.59
2023-04-16T18:50:05.142Z,97523.03
2023-04-16T18:52:50.585Z,97538.81
2023-04-16T18:55:35.780Z,97530.31
2023-04-16T18:58:21.117Z,97533.38
2023-04-16T19:01:06.280Z,97532.50
2023-04-16T19:03:51.511Z,97542.28
2023-04-16T19:06:36.725Z,97545.97
2023-04-16T19:09:22.073Z,97540.59
2023-04-16T19:12:07.243Z,97548.81
2023-04-16T19:14:52.625Z,97544.78
2023-04-16T19:17:38.037Z,97545.03
2023-04-16T19:20:23.476Z,97551.84
2023-04-16T19:23:08.892Z,97555.72
2023-04-16T19:25:54.266Z,97552.09
2023-04-16T19:28:40.061Z,97560.28
2023-04-16T19:31:25.369Z,97555.09
2023-04-16T19:34:10.883Z,97557.22
2023-04-16T19:36:56.231Z,97559.91
2023-04-16T19:39:41.611Z,97555.84
2023-04-16T19:42:26.830Z,97563.78
2023-04-16T19:45:11.946Z,97563.81
2023-04-16T19:47:57.134Z,97559.19
2023-04-16T19:50:42.166Z,97561.28
2023-04-16T19:53:27.473Z,97557.56
2023-04-16T19:56:12.975Z,97556.09
2023-04-16T19:58:58.418Z,97549.38
2023-04-16T20:01:44.088Z,97555.28
2023-04-16T20:04:29.483Z,97545.22
2023-04-16T20:07:14.826Z,97546.09
2023-04-16T20:10:00.353Z,97545.31
2023-04-16T20:12:45.859Z,97546.66
2023-04-16T20:15:31.353Z,97538.75
2023-04-16T20:18:16.673Z,97540.25
2023-04-16T20:21:02.192Z,97544.72
2023-04-16T20:23:47.575Z,97535.78
2023-04-16T20:26:32.899Z,97530.31
2023-04-16T20:29:18.398Z,97537.09
2023-04-16T20:32:03.759Z,97539.72
2023-04-16T20:34:49.216Z,97531.84
2023-04-16T20:37:34.594Z,97530.00
2023-04-16T20:40:20.043Z,97536.00
2023-04-16T20:43:05.468Z,97539.81
2023-04-16T20:45:50.972Z,97540.59
2023-04-16T20:48:36.326Z,97530.84
2023-04-16T20:51:21.700Z,97528.94
2023-04-16T20:54:07.270Z,97529.13
2023-04-16T20:56:52.634Z,97531.13
2023-04-16T20:59:38.003Z,97528.56
2023-04-16T21:02:23.442Z,97513.56
2023-04-16T21:05:08.494Z,97513.56
2023-04-16T21:07:55.767Z,97513.63
2023-04-16T21:10:41.239Z,97512.69
2023-04-16T21:13:26.449Z,97512.69
2023-04-16T21:16:12.092Z,97501.25
2023-04-16T21:18:57.342Z,97504.59
2023-04-16T21:21:42.851Z,97492.06
2023-04-16T21:24:28.325Z,97497.41
2023-04-16T21:27:13.635Z,97495.69
2023-04-16T21:29:59.132Z,97495.91
2023-04-16T21:32:44.297Z,97496.03
2023-04-16T21:35:29.440Z,97499.38
2023-04-16T21:38:14.725Z,97506.75
2023-04-16T21:41:00.122Z,97509.97
2023-04-16T21:43:45.508Z,97500.38
2023-04-16T21:46:30.697Z,97500.44
2023-04-16T21:49:16.205Z,97499.38
2023-04-16T21:52:01.571Z,97504.75
2023-04-16T21:54:46.863Z,97497.22
2023-04-16T21:57:32.110Z,97498.78
2023-04-16T22:00:17.593Z,97489.81
2023-04-16T22:03:03.160Z,97490.91
2023-04-16T22:05:48.410Z,97493.06
2023-04-16T22:08:33.760Z,97492.13
2023-04-16T22:11:18.899Z,97494.63
2023-04-16T22:14:04.123Z,97488.38
2023-04-16T22:16:49.470Z,97487.06
2023-04-16T22:19:34.907Z,97483.63
2023-04-16T22:22:22.529Z,97480.03
2023-04-16T22:25:07.513Z,97481.56
2023-04-16T22:27:52.956Z,97480.56
2023-04-16T22:30:38.360Z,97469.44
2023-04-16T22:33:23.627Z,97464.72
2023-04-16T22:36:09.212Z,97460.22
2023-04-16T22:38:54.485Z,97452.84
2023-04-16T22:41:39.902Z,97444.09
2023-04-16T22:44:25.288Z,97448.94
2023-04-16T22:47:10.812Z,97447.34
2023-04-16T22:49:56.182Z,97442.28
2023-04-16T22:52:41.248Z,97447.03
2023-04-16T22:55:26.618Z,97438.88
2023-04-16T22:58:11.963Z,97443.25
2023-04-16T23:00:57.311Z,97451.16
2023-04-16T23:03:43.041Z,97442.44
2023-04-16T23:06:28.187Z,97448.44
2023-04-16T23:09:13.839Z,97438.91
2023-04-16T23:11:59.276Z,97441.63
2023-04-16T23:14:44.721Z,97437.94
2023-04-16T23:17:30.086Z,97436.44
2023-04-16T23:20:15.288Z,97432.66
2023-04-16T23:23:00.789Z,97434.28
2023-04-16T23:25:46.087Z,97437.63
2023-04-16T23:28:31.656Z,97437.84
2023-04-16T23:31:17.100Z,97438.09
2023-04-16T23:34:02.446Z,97422.13
2023-04-16T23:36:47.849Z,97427.03
2023-04-16T23:39:33.076Z,97420.28
2023-04-16T23:42:18.476Z,97427.91
2023-04-16T23:45:03.910Z,97422.13
2023-04-16T23:47:49.314Z,97425.34
2023-04-16T23:50:34.774Z,97423.19
2023-04-16T23:53:20.258Z,97415.03
2023-04-16T23:56:05.621Z,97414.53
2023-04-16T23:58:50.852Z,97409.41
